sensor_id;sensor_type;location;lat;lon;timestamp;P1;durP1;ratioP1;P2;durP2;ratioP2
16262;SDS011;8239;48.594;8.598;2024-02-21T00:02:26;8.30;;;4.60;;
16262;SDS011;8239;48.594;8.598;2024-02-21T00:04:53;7.40;;;4.30;;
16262;SDS011;8239;48.594;8.598;2024-02-21T00:07:20;10.63;;;4.60;;
16262;SDS011;8239;48.594;8.598;2024-02-21T00:09:47;9.40;;;4.50;;
16262;SDS011;8239;48.594;8.598;2024-02-21T00:12:15;9.63;;;4.40;;
16262;SDS011;8239;48.594;8.598;2024-02-21T00:14:42;8.53;;;4.53;;
16262;SDS011;8239;48.594;8.598;2024-02-21T00:17:10;8.07;;;4.60;;
16262;SDS011;8239;48.594;8.598;2024-02-21T00:19:37;7.47;;;4.60;;
16262;SDS011;8239;48.594;8.598;2024-02-21T00:22:04;9.00;;;4.47;;
16262;SDS011;8239;48.594;8.598;2024-02-21T00:24:31;7.93;;;4.93;;
16262;SDS011;8239;48.594;8.598;2024-02-21T00:26:58;10.73;;;5.13;;
16262;SDS011;8239;48.594;8.598;2024-02-21T00:29:25;8.23;;;4.80;;
16262;SDS011;8239;48.594;8.598;2024-02-21T00:31:52;8.83;;;4.70;;
16262;SDS011;8239;48.594;8.598;2024-02-21T00:34:21;8.17;;;4.67;;
16262;SDS011;8239;48.594;8.598;2024-02-21T00:36:47;8.00;;;4.07;;
16262;SDS011;8239;48.594;8.598;2024-02-21T00:39:15;9.03;;;3.87;;
16262;SDS011;8239;48.594;8.598;2024-02-21T00:41:42;6.83;;;3.70;;
16262;SDS011;8239;48.594;8.598;2024-02-21T00:44:09;5.60;;;3.60;;
16262;SDS011;8239;48.594;8.598;2024-02-21T00:46:35;6.00;;;3.60;;
16262;SDS011;8239;48.594;8.598;2024-02-21T00:49:03;6.17;;;3.33;;
16262;SDS011;8239;48.594;8.598;2024-02-21T00:51:32;6.50;;;3.60;;
16262;SDS011;8239;48.594;8.598;2024-02-21T00:53:59;5.90;;;3.70;;
16262;SDS011;8239;48.594;8.598;2024-02-21T00:56:27;4.83;;;3.17;;
16262;SDS011;8239;48.594;8.598;2024-02-21T00:58:54;6.50;;;3.30;;
16262;SDS011;8239;48.594;8.598;2024-02-21T01:01:21;8.00;;;3.57;;
16262;SDS011;8239;48.594;8.598;2024-02-21T01:03:49;5.77;;;3.20;;
16262;SDS011;8239;48.594;8.598;2024-02-21T01:06:16;7.37;;;3.20;;
16262;SDS011;8239;48.594;8.598;2024-02-21T01:08:45;5.37;;;3.27;;
16262;SDS011;8239;48.594;8.598;2024-02-21T01:11:12;7.33;;;3.93;;
16262;SDS011;8239;48.594;8.598;2024-02-21T01:13:39;6.80;;;3.10;;
16262;SDS011;8239;48.594;8.598;2024-02-21T01:16:06;6.77;;;3.17;;
16262;SDS011;8239;48.594;8.598;2024-02-21T01:18:33;4.90;;;2.93;;
16262;SDS011;8239;48.594;8.598;2024-02-21T01:21:00;4.03;;;2.73;;
16262;SDS011;8239;48.594;8.598;2024-02-21T01:23:27;6.80;;;3.43;;
16262;SDS011;8239;48.594;8.598;2024-02-21T01:25:56;6.90;;;3.40;;
16262;SDS011;8239;48.594;8.598;2024-02-21T01:28:23;6.57;;;3.57;;
16262;SDS011;8239;48.594;8.598;2024-02-21T01:30:50;7.60;;;3.57;;
16262;SDS011;8239;48.594;8.598;2024-02-21T01:33:17;7.17;;;3.93;;
16262;SDS011;8239;48.594;8.598;2024-02-21T01:35:44;9.73;;;3.90;;
16262;SDS011;8239;48.594;8.598;2024-02-21T01:38:12;10.00;;;4.20;;
16262;SDS011;8239;48.594;8.598;2024-02-21T01:40:39;7.30;;;4.10;;
16262;SDS011;8239;48.594;8.598;2024-02-21T01:43:16;8.77;;;3.80;;
16262;SDS011;8239;48.594;8.598;2024-02-21T01:45:44;7.77;;;3.70;;
16262;SDS011;8239;48.594;8.598;2024-02-21T01:48:13;6.10;;;4.00;;
16262;SDS011;8239;48.594;8.598;2024-02-21T01:50:40;9.10;;;4.20;;
16262;SDS011;8239;48.594;8.598;2024-02-21T01:53:07;9.33;;;4.20;;
16262;SDS011;8239;48.594;8.598;2024-02-21T01:55:34;6.53;;;3.83;;
16262;SDS011;8239;48.594;8.598;2024-02-21T01:58:02;9.03;;;4.10;;
16262;SDS011;8239;48.594;8.598;2024-02-21T02:00:31;7.67;;;4.07;;
16262;SDS011;8239;48.594;8.598;2024-02-21T02:02:58;7.30;;;3.50;;
16262;SDS011;8239;48.594;8.598;2024-02-21T02:05:26;9.17;;;3.50;;
16262;SDS011;8239;48.594;8.598;2024-02-21T02:07:53;9.13;;;3.47;;
16262;SDS011;8239;48.594;8.598;2024-02-21T02:10:20;6.77;;;3.47;;
16262;SDS011;8239;48.594;8.598;2024-02-21T02:12:47;3.03;;;2.73;;
16262;SDS011;8239;48.594;8.598;2024-02-21T02:15:14;5.40;;;3.00;;
16262;SDS011;8239;48.594;8.598;2024-02-21T02:17:42;6.97;;;3.13;;
16262;SDS011;8239;48.594;8.598;2024-02-21T02:20:09;7.37;;;2.90;;
16262;SDS011;8239;48.594;8.598;2024-02-21T02:22:37;7.63;;;3.10;;
16262;SDS011;8239;48.594;8.598;2024-02-21T02:25:09;6.27;;;3.23;;
16262;SDS011;8239;48.594;8.598;2024-02-21T02:27:41;8.33;;;3.60;;
16262;SDS011;8239;48.594;8.598;2024-02-21T02:30:10;7.90;;;3.30;;
16262;SDS011;8239;48.594;8.598;2024-02-21T02:32:38;6.17;;;3.00;;
16262;SDS011;8239;48.594;8.598;2024-02-21T02:35:05;6.17;;;3.03;;
16262;SDS011;8239;48.594;8.598;2024-02-21T02:37:33;4.27;;;2.50;;
16262;SDS011;8239;48.594;8.598;2024-02-21T02:40:00;3.60;;;2.40;;
16262;SDS011;8239;48.594;8.598;2024-02-21T02:42:29;4.30;;;2.77;;
16262;SDS011;8239;48.594;8.598;2024-02-21T02:44:56;5.03;;;2.60;;
16262;SDS011;8239;48.594;8.598;2024-02-21T02:47:23;8.47;;;3.50;;
16262;SDS011;8239;48.594;8.598;2024-02-21T02:49:50;4.93;;;3.17;;
16262;SDS011;8239;48.594;8.598;2024-02-21T02:52:17;4.50;;;3.10;;
16262;SDS011;8239;48.594;8.598;2024-02-21T02:54:44;5.50;;;3.40;;
16262;SDS011;8239;48.594;8.598;2024-02-21T02:57:17;5.83;;;3.53;;
16262;SDS011;8239;48.594;8.598;2024-02-21T02:59:48;7.23;;;3.73;;
16262;SDS011;8239;48.594;8.598;2024-02-21T03:02:15;5.00;;;3.03;;
16262;SDS011;8239;48.594;8.598;2024-02-21T03:04:42;7.10;;;3.40;;
16262;SDS011;8239;48.594;8.598;2024-02-21T03:07:09;8.73;;;3.30;;
16262;SDS011;8239;48.594;8.598;2024-02-21T03:09:36;4.13;;;3.40;;
16262;SDS011;8239;48.594;8.598;2024-02-21T03:12:04;7.33;;;3.63;;
16262;SDS011;8239;48.594;8.598;2024-02-21T03:14:32;5.40;;;3.10;;
16262;SDS011;8239;48.594;8.598;2024-02-21T03:17:00;5.63;;;3.27;;
16262;SDS011;8239;48.594;8.598;2024-02-21T03:19:28;5.90;;;3.20;;
16262;SDS011;8239;48.594;8.598;2024-02-21T03:21:55;8.00;;;3.17;;
16262;SDS011;8239;48.594;8.598;2024-02-21T03:24:22;52.87;;;4.53;;
16262;SDS011;8239;48.594;8.598;2024-02-21T03:26:49;162.50;;;7.53;;
16262;SDS011;8239;48.594;8.598;2024-02-21T03:29:16;6.23;;;2.60;;
16262;SDS011;8239;48.594;8.598;2024-02-21T03:31:43;4.93;;;2.73;;
16262;SDS011;8239;48.594;8.598;2024-02-21T03:34:11;6.87;;;2.70;;
16262;SDS011;8239;48.594;8.598;2024-02-21T03:36:38;4.93;;;2.80;;
16262;SDS011;8239;48.594;8.598;2024-02-21T03:39:05;5.00;;;3.27;;
16262;SDS011;8239;48.594;8.598;2024-02-21T03:41:33;6.73;;;3.20;;
16262;SDS011;8239;48.594;8.598;2024-02-21T03:44:00;7.20;;;3.40;;
16262;SDS011;8239;48.594;8.598;2024-02-21T03:46:27;8.70;;;3.90;;
16262;SDS011;8239;48.594;8.598;2024-02-21T03:48:54;6.10;;;3.30;;
16262;SDS011;8239;48.594;8.598;2024-02-21T03:51:22;8.83;;;3.60;;
16262;SDS011;8239;48.594;8.598;2024-02-21T03:53:49;6.40;;;3.30;;
16262;SDS011;8239;48.594;8.598;2024-02-21T03:56:16;8.43;;;4.00;;
16262;SDS011;8239;48.594;8.598;2024-02-21T03:58:43;8.03;;;3.80;;
16262;SDS011;8239;48.594;8.598;2024-02-21T04:01:10;8.07;;;3.40;;
16262;SDS011;8239;48.594;8.598;2024-02-21T04:03:41;5.60;;;3.50;;
16262;SDS011;8239;48.594;8.598;2024-02-21T04:06:09;9.07;;;3.57;;
16262;SDS011;8239;48.594;8.598;2024-02-21T04:08:37;7.17;;;3.90;;
16262;SDS011;8239;48.594;8.598;2024-02-21T04:11:05;6.80;;;4.00;;
16262;SDS011;8239;48.594;8.598;2024-02-21T04:13:31;8.97;;;3.80;;
16262;SDS011;8239;48.594;8.598;2024-02-21T04:15:58;7.37;;;3.83;;
16262;SDS011;8239;48.594;8.598;2024-02-21T04:18:26;9.80;;;4.33;;
16262;SDS011;8239;48.594;8.598;2024-02-21T04:20:53;9.67;;;3.50;;
16262;SDS011;8239;48.594;8.598;2024-02-21T04:23:20;7.83;;;3.90;;
16262;SDS011;8239;48.594;8.598;2024-02-21T04:25:48;4.93;;;3.33;;
16262;SDS011;8239;48.594;8.598;2024-02-21T04:28:15;10.13;;;3.70;;
16262;SDS011;8239;48.594;8.598;2024-02-21T04:30:42;8.53;;;4.00;;
16262;SDS011;8239;48.594;8.598;2024-02-21T04:33:09;10.57;;;4.17;;
16262;SDS011;8239;48.594;8.598;2024-02-21T04:35:35;7.17;;;3.60;;
16262;SDS011;8239;48.594;8.598;2024-02-21T04:38:01;5.73;;;3.77;;
16262;SDS011;8239;48.594;8.598;2024-02-21T04:40:29;8.13;;;3.77;;
16262;SDS011;8239;48.594;8.598;2024-02-21T04:42:57;7.43;;;4.00;;
16262;SDS011;8239;48.594;8.598;2024-02-21T04:45:24;8.47;;;3.90;;
16262;SDS011;8239;48.594;8.598;2024-02-21T04:47:51;7.83;;;3.77;;
16262;SDS011;8239;48.594;8.598;2024-02-21T04:50:18;9.23;;;3.87;;
16262;SDS011;8239;48.594;8.598;2024-02-21T04:52:45;11.43;;;3.97;;
16262;SDS011;8239;48.594;8.598;2024-02-21T04:55:12;10.40;;;3.77;;
16262;SDS011;8239;48.594;8.598;2024-02-21T04:57:39;5.93;;;3.60;;
16262;SDS011;8239;48.594;8.598;2024-02-21T05:00:08;8.03;;;4.17;;
16262;SDS011;8239;48.594;8.598;2024-02-21T05:02:36;8.27;;;3.60;;
16262;SDS011;8239;48.594;8.598;2024-02-21T05:05:03;7.07;;;3.50;;
16262;SDS011;8239;48.594;8.598;2024-02-21T05:07:30;7.97;;;3.30;;
16262;SDS011;8239;48.594;8.598;2024-02-21T05:09:57;9.57;;;3.80;;
16262;SDS011;8239;48.594;8.598;2024-02-21T05:12:25;8.33;;;3.80;;
16262;SDS011;8239;48.594;8.598;2024-02-21T05:14:51;10.30;;;3.80;;
16262;SDS011;8239;48.594;8.598;2024-02-21T05:17:20;7.13;;;3.50;;
16262;SDS011;8239;48.594;8.598;2024-02-21T05:19:47;9.23;;;4.00;;
16262;SDS011;8239;48.594;8.598;2024-02-21T05:22:14;9.87;;;6.53;;
16262;SDS011;8239;48.594;8.598;2024-02-21T05:24:42;10.50;;;5.80;;
16262;SDS011;8239;48.594;8.598;2024-02-21T05:27:09;9.37;;;4.87;;
16262;SDS011;8239;48.594;8.598;2024-02-21T05:29:36;8.97;;;4.40;;
16262;SDS011;8239;48.594;8.598;2024-02-21T05:32:03;8.70;;;4.00;;
16262;SDS011;8239;48.594;8.598;2024-02-21T05:34:31;9.97;;;4.00;;
16262;SDS011;8239;48.594;8.598;2024-02-21T05:36:58;7.80;;;3.30;;
16262;SDS011;8239;48.594;8.598;2024-02-21T05:39:26;15.67;;;7.93;;
16262;SDS011;8239;48.594;8.598;2024-02-21T05:41:54;11.03;;;5.37;;
16262;SDS011;8239;48.594;8.598;2024-02-21T05:44:21;9.07;;;3.83;;
16262;SDS011;8239;48.594;8.598;2024-02-21T05:46:48;8.93;;;3.87;;
16262;SDS011;8239;48.594;8.598;2024-02-21T05:49:15;6.20;;;3.73;;
16262;SDS011;8239;48.594;8.598;2024-02-21T05:51:43;10.20;;;3.87;;
16262;SDS011;8239;48.594;8.598;2024-02-21T05:54:10;7.37;;;3.87;;
16262;SDS011;8239;48.594;8.598;2024-02-21T05:56:37;10.53;;;3.90;;
16262;SDS011;8239;48.594;8.598;2024-02-21T05:59:05;8.17;;;3.57;;
16262;SDS011;8239;48.594;8.598;2024-02-21T06:01:32;12.20;;;4.00;;
16262;SDS011;8239;48.594;8.598;2024-02-21T06:03:59;10.00;;;3.50;;
16262;SDS011;8239;48.594;8.598;2024-02-21T06:06:26;9.60;;;3.83;;
16262;SDS011;8239;48.594;8.598;2024-02-21T06:08:54;11.07;;;3.90;;
16262;SDS011;8239;48.594;8.598;2024-02-21T06:11:22;10.20;;;3.60;;
16262;SDS011;8239;48.594;8.598;2024-02-21T06:13:49;10.30;;;3.80;;
16262;SDS011;8239;48.594;8.598;2024-02-21T06:16:16;8.87;;;4.07;;
16262;SDS011;8239;48.594;8.598;2024-02-21T06:18:43;11.80;;;3.80;;
16262;SDS011;8239;48.594;8.598;2024-02-21T06:21:10;8.00;;;3.53;;
16262;SDS011;8239;48.594;8.598;2024-02-21T06:23:37;11.50;;;4.13;;
16262;SDS011;8239;48.594;8.598;2024-02-21T06:26:05;9.07;;;4.07;;
16262;SDS011;8239;48.594;8.598;2024-02-21T06:28:31;8.43;;;4.00;;
16262;SDS011;8239;48.594;8.598;2024-02-21T06:30:58;11.03;;;4.07;;
16262;SDS011;8239;48.594;8.598;2024-02-21T06:33:25;9.83;;;4.30;;
16262;SDS011;8239;48.594;8.598;2024-02-21T06:35:52;8.57;;;4.03;;
16262;SDS011;8239;48.594;8.598;2024-02-21T06:38:19;7.70;;;4.27;;
16262;SDS011;8239;48.594;8.598;2024-02-21T06:40:46;8.10;;;4.53;;
16262;SDS011;8239;48.594;8.598;2024-02-21T06:43:19;8.33;;;4.47;;
16262;SDS011;8239;48.594;8.598;2024-02-21T06:45:47;8.20;;;4.33;;
16262;SDS011;8239;48.594;8.598;2024-02-21T06:48:16;10.13;;;4.43;;
16262;SDS011;8239;48.594;8.598;2024-02-21T06:50:44;7.53;;;4.20;;
16262;SDS011;8239;48.594;8.598;2024-02-21T06:53:11;4.83;;;3.70;;
16262;SDS011;8239;48.594;8.598;2024-02-21T06:55:38;4.73;;;3.40;;
16262;SDS011;8239;48.594;8.598;2024-02-21T06:58:06;6.00;;;3.20;;
16262;SDS011;8239;48.594;8.598;2024-02-21T07:00:38;5.33;;;3.00;;
16262;SDS011;8239;48.594;8.598;2024-02-21T07:03:05;5.57;;;2.83;;
16262;SDS011;8239;48.594;8.598;2024-02-21T07:05:32;6.20;;;2.83;;
16262;SDS011;8239;48.594;8.598;2024-02-21T07:07:59;5.40;;;2.53;;
16262;SDS011;8239;48.594;8.598;2024-02-21T07:10:26;4.50;;;2.60;;
16262;SDS011;8239;48.594;8.598;2024-02-21T07:12:54;12.03;;;2.70;;
16262;SDS011;8239;48.594;8.598;2024-02-21T07:15:21;3.67;;;2.70;;
16262;SDS011;8239;48.594;8.598;2024-02-21T07:17:53;243.93;;;10.63;;
16262;SDS011;8239;48.594;8.598;2024-02-21T07:20:20;159.07;;;9.27;;
16262;SDS011;8239;48.594;8.598;2024-02-21T07:22:47;137.57;;;9.23;;
16262;SDS011;8239;48.594;8.598;2024-02-21T07:25:14;17.23;;;2.70;;
16262;SDS011;8239;48.594;8.598;2024-02-21T07:27:42;66.87;;;6.23;;
16262;SDS011;8239;48.594;8.598;2024-02-21T07:30:10;62.80;;;5.23;;
16262;SDS011;8239;48.594;8.598;2024-02-21T07:32:37;12.83;;;4.80;;
16262;SDS011;8239;48.594;8.598;2024-02-21T07:35:06;3.23;;;2.70;;
16262;SDS011;8239;48.594;8.598;2024-02-21T07:37:35;5.43;;;2.77;;
16262;SDS011;8239;48.594;8.598;2024-02-21T07:40:03;2.40;;;2.10;;
16262;SDS011;8239;48.594;8.598;2024-02-21T07:42:31;2.00;;;1.70;;
16262;SDS011;8239;48.594;8.598;2024-02-21T07:44:58;2.10;;;1.70;;
16262;SDS011;8239;48.594;8.598;2024-02-21T07:47:24;3.33;;;2.10;;
16262;SDS011;8239;48.594;8.598;2024-02-21T07:49:51;3.67;;;2.07;;
16262;SDS011;8239;48.594;8.598;2024-02-21T07:52:20;4.73;;;2.20;;
16262;SDS011;8239;48.594;8.598;2024-02-21T07:54:47;3.67;;;2.20;;
16262;SDS011;8239;48.594;8.598;2024-02-21T07:57:13;6.00;;;2.17;;
16262;SDS011;8239;48.594;8.598;2024-02-21T07:59:40;4.90;;;2.30;;
16262;SDS011;8239;48.594;8.598;2024-02-21T08:02:08;4.70;;;2.57;;
16262;SDS011;8239;48.594;8.598;2024-02-21T08:04:35;4.77;;;2.20;;
16262;SDS011;8239;48.594;8.598;2024-02-21T08:07:03;2.10;;;1.90;;
16262;SDS011;8239;48.594;8.598;2024-02-21T08:09:31;5.23;;;2.13;;
16262;SDS011;8239;48.594;8.598;2024-02-21T08:11:58;4.03;;;2.30;;
16262;SDS011;8239;48.594;8.598;2024-02-21T08:14:25;4.23;;;3.40;;
16262;SDS011;8239;48.594;8.598;2024-02-21T08:16:52;7.17;;;6.57;;
16262;SDS011;8239;48.594;8.598;2024-02-21T08:19:20;4.00;;;3.60;;
16262;SDS011;8239;48.594;8.598;2024-02-21T08:21:47;3.33;;;3.00;;
16262;SDS011;8239;48.594;8.598;2024-02-21T08:24:14;3.93;;;3.53;;
16262;SDS011;8239;48.594;8.598;2024-02-21T08:26:43;5.77;;;3.20;;
16262;SDS011;8239;48.594;8.598;2024-02-21T08:29:11;5.27;;;4.03;;
16262;SDS011;8239;48.594;8.598;2024-02-21T08:31:38;7.13;;;5.43;;
16262;SDS011;8239;48.594;8.598;2024-02-21T08:34:05;6.70;;;5.50;;
16262;SDS011;8239;48.594;8.598;2024-02-21T08:36:32;5.53;;;3.90;;
16262;SDS011;8239;48.594;8.598;2024-02-21T08:39:00;8.43;;;4.20;;
16262;SDS011;8239;48.594;8.598;2024-02-21T08:41:30;10.80;;;5.67;;
16262;SDS011;8239;48.594;8.598;2024-02-21T08:43:59;8.07;;;5.53;;
16262;SDS011;8239;48.594;8.598;2024-02-21T08:46:26;9.53;;;4.83;;
16262;SDS011;8239;48.594;8.598;2024-02-21T08:48:53;6.47;;;4.20;;
16262;SDS011;8239;48.594;8.598;2024-02-21T08:51:20;5.53;;;4.30;;
16262;SDS011;8239;48.594;8.598;2024-02-21T08:53:47;4.83;;;3.73;;
16262;SDS011;8239;48.594;8.598;2024-02-21T08:56:14;5.53;;;2.73;;
16262;SDS011;8239;48.594;8.598;2024-02-21T08:58:42;5.73;;;3.13;;
16262;SDS011;8239;48.594;8.598;2024-02-21T09:01:11;6.73;;;2.90;;
16262;SDS011;8239;48.594;8.598;2024-02-21T09:03:38;6.07;;;2.57;;
16262;SDS011;8239;48.594;8.598;2024-02-21T09:06:06;6.40;;;3.07;;
16262;SDS011;8239;48.594;8.598;2024-02-21T09:08:34;4.17;;;2.50;;
16262;SDS011;8239;48.594;8.598;2024-02-21T09:11:01;5.23;;;2.83;;
16262;SDS011;8239;48.594;8.598;2024-02-21T09:13:28;5.60;;;2.50;;
16262;SDS011;8239;48.594;8.598;2024-02-21T09:15:56;4.03;;;2.20;;
16262;SDS011;8239;48.594;8.598;2024-02-21T09:18:24;5.53;;;2.50;;
16262;SDS011;8239;48.594;8.598;2024-02-21T09:20:52;4.30;;;2.40;;
16262;SDS011;8239;48.594;8.598;2024-02-21T09:23:19;4.68;;;2.70;;
16262;SDS011;8239;48.594;8.598;2024-02-21T09:25:46;6.35;;;2.65;;
16262;SDS011;8239;48.594;8.598;2024-02-21T09:28:16;6.90;;;2.53;;
16262;SDS011;8239;48.594;8.598;2024-02-21T09:30:43;5.97;;;2.50;;
16262;SDS011;8239;48.594;8.598;2024-02-21T09:33:10;5.03;;;2.55;;
16262;SDS011;8239;48.594;8.598;2024-02-21T09:35:40;4.57;;;2.67;;
16262;SDS011;8239;48.594;8.598;2024-02-21T09:38:07;3.83;;;2.13;;
16262;SDS011;8239;48.594;8.598;2024-02-21T09:40:34;4.32;;;2.38;;
16262;SDS011;8239;48.594;8.598;2024-02-21T09:43:04;4.75;;;2.28;;
16262;SDS011;8239;48.594;8.598;2024-02-21T09:45:32;5.55;;;2.33;;
16262;SDS011;8239;48.594;8.598;2024-02-21T09:48:08;4.57;;;2.15;;
16262;SDS011;8239;48.594;8.598;2024-02-21T09:50:49;5.55;;;2.30;;
16262;SDS011;8239;48.594;8.598;2024-02-21T09:53:18;4.78;;;2.00;;
16262;SDS011;8239;48.594;8.598;2024-02-21T09:55:45;3.80;;;2.40;;
16262;SDS011;8239;48.594;8.598;2024-02-21T09:58:14;4.80;;;2.78;;
16262;SDS011;8239;48.594;8.598;2024-02-21T10:00:42;4.82;;;2.30;;
16262;SDS011;8239;48.594;8.598;2024-02-21T10:03:09;3.72;;;2.40;;
16262;SDS011;8239;48.594;8.598;2024-02-21T10:05:36;6.00;;;3.25;;
16262;SDS011;8239;48.594;8.598;2024-02-21T10:08:05;3.97;;;2.17;;
16262;SDS011;8239;48.594;8.598;2024-02-21T10:10:40;3.80;;;1.90;;
16262;SDS011;8239;48.594;8.598;2024-02-21T10:13:09;3.58;;;1.75;;
16262;SDS011;8239;48.594;8.598;2024-02-21T10:15:36;4.60;;;2.03;;
16262;SDS011;8239;48.594;8.598;2024-02-21T10:18:04;3.70;;;1.85;;
16262;SDS011;8239;48.594;8.598;2024-02-21T10:20:32;3.40;;;1.80;;
16262;SDS011;8239;48.594;8.598;2024-02-21T10:23:00;4.03;;;1.73;;
16262;SDS011;8239;48.594;8.598;2024-02-21T10:25:29;3.83;;;1.70;;
16262;SDS011;8239;48.594;8.598;2024-02-21T10:27:57;3.95;;;1.60;;
16262;SDS011;8239;48.594;8.598;2024-02-21T10:30:24;3.90;;;1.90;;
16262;SDS011;8239;48.594;8.598;2024-02-21T10:32:51;3.33;;;1.77;;
16262;SDS011;8239;48.594;8.598;2024-02-21T10:35:25;3.13;;;1.40;;
16262;SDS011;8239;48.594;8.598;2024-02-21T10:37:54;2.75;;;1.45;;
16262;SDS011;8239;48.594;8.598;2024-02-21T10:40:22;2.28;;;1.30;;
16262;SDS011;8239;48.594;8.598;2024-02-21T10:42:55;4.45;;;1.70;;
16262;SDS011;8239;48.594;8.598;2024-02-21T10:45:27;1.88;;;1.33;;
16262;SDS011;8239;48.594;8.598;2024-02-21T10:48:00;3.88;;;1.48;;
16262;SDS011;8239;48.594;8.598;2024-02-21T10:50:36;3.30;;;1.20;;
16262;SDS011;8239;48.594;8.598;2024-02-21T10:53:19;2.65;;;1.30;;
16262;SDS011;8239;48.594;8.598;2024-02-21T10:55:51;2.78;;;1.20;;
16262;SDS011;8239;48.594;8.598;2024-02-21T10:58:27;1.45;;;1.02;;
16262;SDS011;8239;48.594;8.598;2024-02-21T11:00:55;2.10;;;1.20;;
16262;SDS011;8239;48.594;8.598;2024-02-21T11:03:22;1.85;;;1.00;;
16262;SDS011;8239;48.594;8.598;2024-02-21T11:05:49;2.65;;;1.10;;
16262;SDS011;8239;48.594;8.598;2024-02-21T11:08:17;1.90;;;1.10;;
16262;SDS011;8239;48.594;8.598;2024-02-21T11:10:45;3.63;;;1.20;;
16262;SDS011;8239;48.594;8.598;2024-02-21T11:13:12;3.17;;;1.27;;
16262;SDS011;8239;48.594;8.598;2024-02-21T11:15:41;2.63;;;1.20;;
16262;SDS011;8239;48.594;8.598;2024-02-21T11:18:08;1.35;;;1.00;;
16262;SDS011;8239;48.594;8.598;2024-02-21T11:20:35;2.33;;;1.10;;
16262;SDS011;8239;48.594;8.598;2024-02-21T11:23:03;2.38;;;1.05;;
16262;SDS011;8239;48.594;8.598;2024-02-21T11:25:30;2.25;;;1.05;;
16262;SDS011;8239;48.594;8.598;2024-02-21T11:27:59;7.95;;;4.28;;
16262;SDS011;8239;48.594;8.598;2024-02-21T11:30:27;3.50;;;1.58;;
16262;SDS011;8239;48.594;8.598;2024-02-21T11:33:05;1.50;;;0.90;;
16262;SDS011;8239;48.594;8.598;2024-02-21T11:35:33;2.08;;;0.90;;
16262;SDS011;8239;48.594;8.598;2024-02-21T11:38:07;1.42;;;0.90;;
16262;SDS011;8239;48.594;8.598;2024-02-21T11:40:38;1.60;;;0.93;;
16262;SDS011;8239;48.594;8.598;2024-02-21T11:43:06;2.05;;;0.90;;
16262;SDS011;8239;48.594;8.598;2024-02-21T11:45:33;2.78;;;1.00;;
16262;SDS011;8239;48.594;8.598;2024-02-21T11:48:00;2.85;;;1.00;;
16262;SDS011;8239;48.594;8.598;2024-02-21T11:50:33;0.65;;;0.65;;
16262;SDS011;8239;48.594;8.598;2024-02-21T11:53:26;1.35;;;0.65;;
16262;SDS011;8239;48.594;8.598;2024-02-21T11:55:56;0.95;;;0.70;;
16262;SDS011;8239;48.594;8.598;2024-02-21T11:58:24;0.95;;;0.57;;
16262;SDS011;8239;48.594;8.598;2024-02-21T12:00:51;1.65;;;0.65;;
16262;SDS011;8239;48.594;8.598;2024-02-21T12:03:18;1.15;;;0.60;;
16262;SDS011;8239;48.594;8.598;2024-02-21T12:05:47;1.67;;;0.80;;
16262;SDS011;8239;48.594;8.598;2024-02-21T12:08:14;0.77;;;0.73;;
16262;SDS011;8239;48.594;8.598;2024-02-21T12:10:42;1.67;;;0.85;;
16262;SDS011;8239;48.594;8.598;2024-02-21T12:13:16;1.00;;;0.60;;
16262;SDS011;8239;48.594;8.598;2024-02-21T12:15:47;1.85;;;0.82;;
16262;SDS011;8239;48.594;8.598;2024-02-21T12:18:14;1.95;;;0.80;;
16262;SDS011;8239;48.594;8.598;2024-02-21T12:20:42;0.95;;;0.70;;
16262;SDS011;8239;48.594;8.598;2024-02-21T12:23:12;0.93;;;0.50;;
16262;SDS011;8239;48.594;8.598;2024-02-21T12:25:39;2.53;;;0.80;;
16262;SDS011;8239;48.594;8.598;2024-02-21T12:28:06;1.00;;;0.65;;
16262;SDS011;8239;48.594;8.598;2024-02-21T12:30:33;1.08;;;0.60;;
16262;SDS011;8239;48.594;8.598;2024-02-21T12:33:04;0.73;;;0.57;;
16262;SDS011;8239;48.594;8.598;2024-02-21T12:35:31;0.68;;;0.60;;
16262;SDS011;8239;48.594;8.598;2024-02-21T12:37:58;1.48;;;0.50;;
16262;SDS011;8239;48.594;8.598;2024-02-21T12:40:28;0.50;;;0.50;;
16262;SDS011;8239;48.594;8.598;2024-02-21T12:42:58;1.33;;;0.75;;
16262;SDS011;8239;48.594;8.598;2024-02-21T12:45:29;0.98;;;0.57;;
16262;SDS011;8239;48.594;8.598;2024-02-21T12:47:56;0.75;;;0.50;;
16262;SDS011;8239;48.594;8.598;2024-02-21T12:50:24;0.52;;;0.50;;
16262;SDS011;8239;48.594;8.598;2024-02-21T12:52:50;0.90;;;0.70;;
16262;SDS011;8239;48.594;8.598;2024-02-21T12:55:18;0.52;;;0.50;;
16262;SDS011;8239;48.594;8.598;2024-02-21T12:57:46;0.68;;;0.55;;
16262;SDS011;8239;48.594;8.598;2024-02-21T13:00:14;0.70;;;0.70;;
16262;SDS011;8239;48.594;8.598;2024-02-21T13:02:41;1.03;;;0.70;;
16262;SDS011;8239;48.594;8.598;2024-02-21T13:05:09;1.37;;;0.67;;
16262;SDS011;8239;48.594;8.598;2024-02-21T13:07:37;1.30;;;0.80;;
16262;SDS011;8239;48.594;8.598;2024-02-21T13:10:04;0.50;;;0.47;;
16262;SDS011;8239;48.594;8.598;2024-02-21T13:12:33;1.03;;;0.60;;
16262;SDS011;8239;48.594;8.598;2024-02-21T13:15:01;3.50;;;0.80;;
16262;SDS011;8239;48.594;8.598;2024-02-21T13:17:29;1.23;;;0.88;;
16262;SDS011;8239;48.594;8.598;2024-02-21T13:19:56;0.60;;;0.60;;
16262;SDS011;8239;48.594;8.598;2024-02-21T13:22:23;1.33;;;0.80;;
16262;SDS011;8239;48.594;8.598;2024-02-21T13:24:52;0.80;;;0.80;;
16262;SDS011;8239;48.594;8.598;2024-02-21T13:27:18;1.65;;;0.60;;
16262;SDS011;8239;48.594;8.598;2024-02-21T13:29:46;1.67;;;0.70;;
16262;SDS011;8239;48.594;8.598;2024-02-21T13:32:14;0.70;;;0.70;;
16262;SDS011;8239;48.594;8.598;2024-02-21T13:34:41;0.60;;;0.60;;
16262;SDS011;8239;48.594;8.598;2024-02-21T13:37:08;0.93;;;0.50;;
16262;SDS011;8239;48.594;8.598;2024-02-21T13:39:36;1.17;;;0.77;;
16262;SDS011;8239;48.594;8.598;2024-02-21T13:58:11;1.00;;;0.73;;
16262;SDS011;8239;48.594;8.598;2024-02-21T14:00:39;0.70;;;0.70;;
16262;SDS011;8239;48.594;8.598;2024-02-21T14:03:06;1.73;;;0.80;;
16262;SDS011;8239;48.594;8.598;2024-02-21T14:05:33;1.43;;;0.70;;
16262;SDS011;8239;48.594;8.598;2024-02-21T14:08:00;1.43;;;0.90;;
16262;SDS011;8239;48.594;8.598;2024-02-21T14:10:27;2.17;;;0.80;;
16262;SDS011;8239;48.594;8.598;2024-02-21T14:12:54;2.60;;;2.00;;
16262;SDS011;8239;48.594;8.598;2024-02-21T14:15:23;4.10;;;2.83;;
16262;SDS011;8239;48.594;8.598;2024-02-21T14:17:50;1.23;;;1.13;;
16262;SDS011;8239;48.594;8.598;2024-02-21T14:20:17;1.47;;;0.93;;
16262;SDS011;8239;48.594;8.598;2024-02-21T14:22:44;1.10;;;0.90;;
16262;SDS011;8239;48.594;8.598;2024-02-21T14:25:11;1.23;;;0.70;;
16262;SDS011;8239;48.594;8.598;2024-02-21T14:27:40;2.20;;;0.97;;
16262;SDS011;8239;48.594;8.598;2024-02-21T14:30:09;1.63;;;0.83;;
16262;SDS011;8239;48.594;8.598;2024-02-21T14:32:37;1.07;;;1.03;;
16262;SDS011;8239;48.594;8.598;2024-02-21T14:35:04;3.37;;;1.00;;
16262;SDS011;8239;48.594;8.598;2024-02-21T14:37:33;1.57;;;1.00;;
16262;SDS011;8239;48.594;8.598;2024-02-21T14:40:00;2.80;;;1.63;;
16262;SDS011;8239;48.594;8.598;2024-02-21T14:42:28;1.50;;;1.00;;
16262;SDS011;8239;48.594;8.598;2024-02-21T14:44:55;0.80;;;0.80;;
16262;SDS011;8239;48.594;8.598;2024-02-21T14:47:28;0.97;;;0.93;;
16262;SDS011;8239;48.594;8.598;2024-02-21T14:49:58;1.60;;;0.80;;
16262;SDS011;8239;48.594;8.598;2024-02-21T14:52:24;0.93;;;0.80;;
16262;SDS011;8239;48.594;8.598;2024-02-21T14:54:52;1.33;;;1.20;;
16262;SDS011;8239;48.594;8.598;2024-02-21T14:57:20;1.53;;;1.00;;
16262;SDS011;8239;48.594;8.598;2024-02-21T14:59:46;1.17;;;0.90;;
16262;SDS011;8239;48.594;8.598;2024-02-21T15:02:15;2.00;;;1.30;;
16262;SDS011;8239;48.594;8.598;2024-02-21T15:04:42;3.40;;;2.20;;
16262;SDS011;8239;48.594;8.598;2024-02-21T15:07:10;2.53;;;1.97;;
16262;SDS011;8239;48.594;8.598;2024-02-21T15:09:37;1.90;;;1.63;;
16262;SDS011;8239;48.594;8.598;2024-02-21T15:12:05;3.40;;;2.37;;
16262;SDS011;8239;48.594;8.598;2024-02-21T15:14:33;2.43;;;2.10;;
16262;SDS011;8239;48.594;8.598;2024-02-21T15:17:00;1.80;;;1.60;;
16262;SDS011;8239;48.594;8.598;2024-02-21T15:19:27;2.10;;;1.47;;
16262;SDS011;8239;48.594;8.598;2024-02-21T15:21:54;2.80;;;1.80;;